sensor_id;sensor_type;location;lat;lon;timestamp;temperature;humidity
1880;DHT22;49285;49.002;8.390;2023-03-21T00:02:02;13.30;99.90
1880;DHT22;49285;49.002;8.390;2023-03-21T00:04:27;13.20;99.90
1880;DHT22;49285;49.002;8.390;2023-03-21T00:06:53;13.10;99.90
1880;DHT22;49285;49.002;8.390;2023-03-21T00:09:19;13.10;99.90
1880;DHT22;49285;49.002;8.390;2023-03-21T00:11:45;13.00;99.90
1880;DHT22;49285;49.002;8.390;2023-03-21T00:14:11;13.00;99.90
1880;DHT22;49285;49.002;8.390;2023-03-21T00:16:38;13.10;99.90
1880;DHT22;49285;49.002;8.390;2023-03-21T00:19:05;13.10;99.90
1880;DHT22;49285;49.002;8.390;2023-03-21T00:21:32;13.10;99.90
1880;DHT22;49285;49.002;8.390;2023-03-21T00:23:59;13.10;99.90
1880;DHT22;49285;49.002;8.390;2023-03-21T00:26:25;13.10;99.90
1880;DHT22;49285;49.002;8.390;2023-03-21T00:28:51;13.00;99.90
1880;DHT22;49285;49.002;8.390;2023-03-21T00:31:17;13.00;99.90
1880;DHT22;49285;49.002;8.390;2023-03-21T00:33:43;13.00;99.90
1880;DHT22;49285;49.002;8.390;2023-03-21T00:36:09;13.00;99.90
1880;DHT22;49285;49.002;8.390;2023-03-21T00:38:36;13.00;99.90
1880;DHT22;49285;49.002;8.390;2023-03-21T00:41:07;13.00;99.90
1880;DHT22;49285;49.002;8.390;2023-03-21T00:43:33;13.00;99.90
1880;DHT22;49285;49.002;8.390;2023-03-21T00:45:59;12.90;99.90
1880;DHT22;49285;49.002;8.390;2023-03-21T00:48:26;12.90;99.90
1880;DHT22;49285;49.002;8.390;2023-03-21T00:50:53;12.90;99.90
1880;DHT22;49285;49.002;8.390;2023-03-21T00:53:20;13.00;99.90
1880;DHT22;49285;49.002;8.390;2023-03-21T00:55:46;13.00;99.90
1880;DHT22;49285;49.002;8.390;2023-03-21T00:58:12;13.00;99.90
1880;DHT22;49285;49.002;8.390;2023-03-21T01:00:37;13.00;99.90
1880;DHT22;49285;49.002;8.390;2023-03-21T01:03:09;13.00;99.90
1880;DHT22;49285;49.002;8.390;2023-03-21T01:05:47;13.00;99.90
1880;DHT22;49285;49.002;8.390;2023-03-21T01:08:37;13.00;99.90
1880;DHT22;49285;49.002;8.390;2023-03-21T01:11:06;12.90;99.90
1880;DHT22;49285;49.002;8.390;2023-03-21T01:13:32;12.90;99.90
1880;DHT22;49285;49.002;8.390;2023-03-21T01:15:58;12.90;99.90
1880;DHT22;49285;49.002;8.390;2023-03-21T01:18:27;12.90;99.90
1880;DHT22;49285;49.002;8.390;2023-03-21T01:20:55;12.80;99.90
1880;DHT22;49285;49.002;8.390;2023-03-21T01:23:21;12.80;99.90
1880;DHT22;49285;49.002;8.390;2023-03-21T01:25:47;12.70;99.90
1880;DHT22;49285;49.002;8.390;2023-03-21T01:28:13;12.70;99.90
1880;DHT22;49285;49.002;8.390;2023-03-21T01:30:47;12.70;99.90
1880;DHT22;49285;49.002;8.390;2023-03-21T01:33:14;12.70;99.90
1880;DHT22;49285;49.002;8.390;2023-03-21T01:35:40;12.60;99.90
1880;DHT22;49285;49.002;8.390;2023-03-21T01:38:05;12.60;99.90
1880;DHT22;49285;49.002;8.390;2023-03-21T01:40:31;12.50;99.90
1880;DHT22;49285;49.002;8.390;2023-03-21T01:42:57;12.60;99.90
1880;DHT22;49285;49.002;8.390;2023-03-21T01:48:26;12.60;99.90
1880;DHT22;49285;49.002;8.390;2023-03-21T01:50:53;12.50;99.90
1880;DHT22;49285;49.002;8.390;2023-03-21T01:53:22;12.50;99.90
1880;DHT22;49285;49.002;8.390;2023-03-21T01:55:52;12.50;99.90
1880;DHT22;49285;49.002;8.390;2023-03-21T01:58:18;12.60;99.90
1880;DHT22;49285;49.002;8.390;2023-03-21T02:00:45;12.50;99.90
1880;DHT22;49285;49.002;8.390;2023-03-21T02:03:12;12.50;99.90
1880;DHT22;49285;49.002;8.390;2023-03-21T02:08:15;12.50;99.90
1880;DHT22;49285;49.002;8.390;2023-03-21T02:10:42;12.50;99.90
1880;DHT22;49285;49.002;8.390;2023-03-21T02:13:09;12.40;99.90
1880;DHT22;49285;49.002;8.390;2023-03-21T02:15:41;12.40;99.90
1880;DHT22;49285;49.002;8.390;2023-03-21T02:18:30;12.30;99.90
1880;DHT22;49285;49.002;8.390;2023-03-21T02:24:03;12.30;99.90
1880;DHT22;49285;49.002;8.390;2023-03-21T02:27:07;12.20;99.90
1880;DHT22;49285;49.002;8.390;2023-03-21T02:32:43;12.10;99.90
1880;DHT22;49285;49.002;8.390;2023-03-21T02:38:04;12.00;99.90
1880;DHT22;49285;49.002;8.390;2023-03-21T02:40:41;12.00;99.90
1880;DHT22;49285;49.002;8.390;2023-03-21T02:43:27;12.00;99.90
1880;DHT22;49285;49.002;8.390;2023-03-21T02:48:37;11.90;99.90
1880;DHT22;49285;49.002;8.390;2023-03-21T02:51:04;11.90;99.90
1880;DHT22;49285;49.002;8.390;2023-03-21T02:53:36;11.90;99.90
1880;DHT22;49285;49.002;8.390;2023-03-21T02:56:04;11.90;99.90
1880;DHT22;49285;49.002;8.390;2023-03-21T02:58:36;11.90;99.90
1880;DHT22;49285;49.002;8.390;2023-03-21T03:01:03;11.90;99.90
1880;DHT22;49285;49.002;8.390;2023-03-21T03:03:28;11.90;99.90
1880;DHT22;49285;49.002;8.390;2023-03-21T03:05:58;11.80;99.90
1880;DHT22;49285;49.002;8.390;2023-03-21T03:11:32;11.80;99.90
1880;DHT22;49285;49.002;8.390;2023-03-21T03:14:27;11.80;99.90
1880;DHT22;49285;49.002;8.390;2023-03-21T03:22:51;11.70;99.90
1880;DHT22;49285;49.002;8.390;2023-03-21T03:25:23;11.80;99.90
1880;DHT22;49285;49.002;8.390;2023-03-21T03:27:52;11.70;99.90
1880;DHT22;49285;49.002;8.390;2023-03-21T03:30:19;11.80;99.90
1880;DHT22;49285;49.002;8.390;2023-03-21T03:32:49;11.70;99.90
1880;DHT22;49285;49.002;8.390;2023-03-21T03:35:17;11.70;99.90
1880;DHT22;49285;49.002;8.390;2023-03-21T03:37:52;11.70;99.90
1880;DHT22;49285;49.002;8.390;2023-03-21T03:40:40;11.70;99.90
1880;DHT22;49285;49.002;8.390;2023-03-21T03:43:10;11.70;99.90
1880;DHT22;49285;49.002;8.390;2023-03-21T03:45:43;11.70;99.90
1880;DHT22;49285;49.002;8.390;2023-03-21T03:48:39;11.60;99.90
1880;DHT22;49285;49.002;8.390;2023-03-21T03:51:16;11.50;99.90
1880;DHT22;49285;49.002;8.390;2023-03-21T03:53:52;11.60;99.90
1880;DHT22;49285;49.002;8.390;2023-03-21T03:56:20;11.60;99.90
1880;DHT22;49285;49.002;8.390;2023-03-21T03:58:47;11.60;99.90
1880;DHT22;49285;49.002;8.390;2023-03-21T04:01:13;11.60;99.90
1880;DHT22;49285;49.002;8.390;2023-03-21T04:03:40;11.50;99.90
1880;DHT22;49285;49.002;8.390;2023-03-21T04:06:07;11.50;99.90
1880;DHT22;49285;49.002;8.390;2023-03-21T04:08:33;11.50;99.90
1880;DHT22;49285;49.002;8.390;2023-03-21T04:11:00;11.50;99.90
1880;DHT22;49285;49.002;8.390;2023-03-21T04:13:27;11.50;99.90
1880;DHT22;49285;49.002;8.390;2023-03-21T04:15:52;11.50;99.90
1880;DHT22;49285;49.002;8.390;2023-03-21T04:18:18;11.50;99.90
1880;DHT22;49285;49.002;8.390;2023-03-21T04:20:44;11.50;99.90
1880;DHT22;49285;49.002;8.390;2023-03-21T04:23:09;11.50;99.90
1880;DHT22;49285;49.002;8.390;2023-03-21T04:25:36;11.50;99.90
1880;DHT22;49285;49.002;8.390;2023-03-21T04:28:02;11.40;99.90
1880;DHT22;49285;49.002;8.390;2023-03-21T04:30:28;11.40;99.90
1880;DHT22;49285;49.002;8.390;2023-03-21T04:32:53;11.40;99.90
1880;DHT22;49285;49.002;8.390;2023-03-21T04:35:21;11.50;99.90
1880;DHT22;49285;49.002;8.390;2023-03-21T04:37:47;11.40;99.90
1880;DHT22;49285;49.002;8.390;2023-03-21T04:40:14;11.40;99.90
1880;DHT22;49285;49.002;8.390;2023-03-21T04:42:42;11.40;99.90
1880;DHT22;49285;49.002;8.390;2023-03-21T04:45:08;11.50;99.90
1880;DHT22;49285;49.002;8.390;2023-03-21T04:47:35;11.40;99.90
1880;DHT22;49285;49.002;8.390;2023-03-21T04:50:00;11.30;99.90
1880;DHT22;49285;49.002;8.390;2023-03-21T04:52:26;11.40;99.90
1880;DHT22;49285;49.002;8.390;2023-03-21T04:54:52;11.40;99.90
1880;DHT22;49285;49.002;8.390;2023-03-21T04:57:18;11.30;99.90
1880;DHT22;49285;49.002;8.390;2023-03-21T04:59:43;11.40;99.90
1880;DHT22;49285;49.002;8.390;2023-03-21T05:02:10;11.40;99.90
1880;DHT22;49285;49.002;8.390;2023-03-21T05:04:36;11.30;99.90
1880;DHT22;49285;49.002;8.390;2023-03-21T05:07:02;11.20;99.90
1880;DHT22;49285;49.002;8.390;2023-03-21T05:09:28;11.20;99.90
1880;DHT22;49285;49.002;8.390;2023-03-21T05:11:53;11.20;99.90
1880;DHT22;49285;49.002;8.390;2023-03-21T05:14:21;11.30;99.90
1880;DHT22;49285;49.002;8.390;2023-03-21T05:16:47;11.20;99.90
1880;DHT22;49285;49.002;8.390;2023-03-21T05:19:21;11.10;99.90
1880;DHT22;49285;49.002;8.390;2023-03-21T05:21:47;11.10;99.90
1880;DHT22;49285;49.002;8.390;2023-03-21T05:24:19;11.10;99.90
1880;DHT22;49285;49.002;8.390;2023-03-21T05:26:45;11.00;99.90
1880;DHT22;49285;49.002;8.390;2023-03-21T05:29:21;10.90;99.90
1880;DHT22;49285;49.002;8.390;2023-03-21T05:31:46;10.90;99.90
1880;DHT22;49285;49.002;8.390;2023-03-21T05:34:12;11.00;99.90
1880;DHT22;49285;49.002;8.390;2023-03-21T05:36:38;10.90;99.90
1880;DHT22;49285;49.002;8.390;2023-03-21T05:39:04;10.80;99.90
1880;DHT22;49285;49.002;8.390;2023-03-21T05:41:30;10.80;99.90
1880;DHT22;49285;49.002;8.390;2023-03-21T05:43:56;10.80;99.90
1880;DHT22;49285;49.002;8.390;2023-03-21T05:46:22;10.80;99.90
1880;DHT22;49285;49.002;8.390;2023-03-21T05:48:47;10.80;99.90
1880;DHT22;49285;49.002;8.390;2023-03-21T05:51:13;10.80;99.90
1880;DHT22;49285;49.002;8.390;2023-03-21T05:53:39;10.80;99.90
1880;DHT22;49285;49.002;8.390;2023-03-21T05:56:05;10.70;99.90
1880;DHT22;49285;49.002;8.390;2023-03-21T05:58:30;10.80;99.90
1880;DHT22;49285;49.002;8.390;2023-03-21T06:00:56;10.70;99.90
1880;DHT22;49285;49.002;8.390;2023-03-21T06:03:22;10.70;99.90
1880;DHT22;49285;49.002;8.390;2023-03-21T06:05:47;10.70;99.90
1880;DHT22;49285;49.002;8.390;2023-03-21T06:08:13;10.70;99.90
1880;DHT22;49285;49.002;8.390;2023-03-21T06:10:38;10.80;99.90
1880;DHT22;49285;49.002;8.390;2023-03-21T06:13:04;10.60;99.90
1880;DHT22;49285;49.002;8.390;2023-03-21T06:15:30;10.60;99.90
1880;DHT22;49285;49.002;8.390;2023-03-21T06:17:55;10.70;99.90
1880;DHT22;49285;49.002;8.390;2023-03-21T06:20:21;10.70;99.90
1880;DHT22;49285;49.002;8.390;2023-03-21T06:22:46;10.80;99.90
1880;DHT22;49285;49.002;8.390;2023-03-21T06:25:12;10.60;99.90
1880;DHT22;49285;49.002;8.390;2023-03-21T06:27:38;10.70;99.90
1880;DHT22;49285;49.002;8.390;2023-03-21T06:30:04;10.80;99.90
1880;DHT22;49285;49.002;8.390;2023-03-21T06:32:30;10.70;99.90
1880;DHT22;49285;49.002;8.390;2023-03-21T06:34:55;10.60;99.90
1880;DHT22;49285;49.002;8.390;2023-03-21T06:37:21;10.50;99.90
1880;DHT22;49285;49.002;8.390;2023-03-21T06:39:47;10.50;99.90
1880;DHT22;49285;49.002;8.390;2023-03-21T06:42:13;10.50;99.90
1880;DHT22;49285;49.002;8.390;2023-03-21T06:44:39;10.60;99.90
1880;DHT22;49285;49.002;8.390;2023-03-21T06:47:04;10.50;99.90
1880;DHT22;49285;49.002;8.390;2023-03-21T06:49:30;10.50;99.90
1880;DHT22;49285;49.002;8.390;2023-03-21T06:51:56;10.60;99.90
1880;DHT22;49285;49.002;8.390;2023-03-21T06:54:22;10.60;99.90
1880;DHT22;49285;49.002;8.390;2023-03-21T06:56:47;10.60;99.90
1880;DHT22;49285;49.002;8.390;2023-03-21T06:59:13;10.60;99.90
1880;DHT22;49285;49.002;8.390;2023-03-21T07:01:39;10.70;99.90
1880;DHT22;49285;49.002;8.390;2023-03-21T07:04:04;10.80;99.90
1880;DHT22;49285;49.002;8.390;2023-03-21T07:06:31;10.80;99.90
1880;DHT22;49285;49.002;8.390;2023-03-21T07:08:57;10.70;99.90
1880;DHT22;49285;49.002;8.390;2023-03-21T07:11:23;10.80;99.90
1880;DHT22;49285;49.002;8.390;2023-03-21T07:13:49;10.80;99.90
1880;DHT22;49285;49.002;8.390;2023-03-21T07:16:16;10.90;99.90
1880;DHT22;49285;49.002;8.390;2023-03-21T07:18:42;11.10;99.90
1880;DHT22;49285;49.002;8.390;2023-03-21T07:21:08;11.10;99.90
1880;DHT22;49285;49.002;8.390;2023-03-21T07:23:33;11.20;99.90
1880;DHT22;49285;49.002;8.390;2023-03-21T07:25:59;11.00;99.90
1880;DHT22;49285;49.002;8.390;2023-03-21T07:28:26;11.00;99.90
1880;DHT22;49285;49.002;8.390;2023-03-21T07:30:54;11.10;99.90
1880;DHT22;49285;49.002;8.390;2023-03-21T07:33:21;11.20;99.90
1880;DHT22;49285;49.002;8.390;2023-03-21T07:35:51;11.30;99.90
1880;DHT22;49285;49.002;8.390;2023-03-21T07:38:18;11.30;99.90
1880;DHT22;49285;49.002;8.390;2023-03-21T07:40:44;11.50;99.90
1880;DHT22;49285;49.002;8.390;2023-03-21T07:43:11;11.60;99.90
1880;DHT22;49285;49.002;8.390;2023-03-21T07:45:36;11.60;99.90
1880;DHT22;49285;49.002;8.390;2023-03-21T07:48:02;11.80;99.90
1880;DHT22;49285;49.002;8.390;2023-03-21T07:50:28;12.00;99.90
1880;DHT22;49285;49.002;8.390;2023-03-21T07:52:54;11.90;99.90
1880;DHT22;49285;49.002;8.390;2023-03-21T07:55:19;12.00;99.90
1880;DHT22;49285;49.002;8.390;2023-03-21T07:57:45;12.20;99.90
1880;DHT22;49285;49.002;8.390;2023-03-21T08:00:14;12.40;99.90
1880;DHT22;49285;49.002;8.390;2023-03-21T08:02:50;12.40;99.90
1880;DHT22;49285;49.002;8.390;2023-03-21T08:05:20;12.60;99.90
1880;DHT22;49285;49.002;8.390;2023-03-21T08:07:45;12.80;99.90
1880;DHT22;49285;49.002;8.390;2023-03-21T08:10:12;12.90;99.90
1880;DHT22;49285;49.002;8.390;2023-03-21T08:12:38;12.90;99.90
1880;DHT22;49285;49.002;8.390;2023-03-21T08:15:03;13.10;99.90
1880;DHT22;49285;49.002;8.390;2023-03-21T08:17:29;12.90;99.90
1880;DHT22;49285;49.002;8.390;2023-03-21T08:19:55;13.00;99.90
1880;DHT22;49285;49.002;8.390;2023-03-21T08:22:20;13.20;99.90
1880;DHT22;49285;49.002;8.390;2023-03-21T08:24:46;13.30;99.90
1880;DHT22;49285;49.002;8.390;2023-03-21T08:27:11;13.00;99.90
1880;DHT22;49285;49.002;8.390;2023-03-21T08:29:37;13.30;99.90
1880;DHT22;49285;49.002;8.390;2023-03-21T08:32:06;13.30;99.90
1880;DHT22;49285;49.002;8.390;2023-03-21T08:34:32;13.50;99.90
1880;DHT22;49285;49.002;8.390;2023-03-21T08:36:58;13.60;99.90
1880;DHT22;49285;49.002;8.390;2023-03-21T08:39:24;13.60;99.90
1880;DHT22;49285;49.002;8.390;2023-03-21T08:41:50;13.60;99.90
1880;DHT22;49285;49.002;8.390;2023-03-21T08:44:16;13.80;99.90
1880;DHT22;49285;49.002;8.390;2023-03-21T08:46:42;13.80;99.90
1880;DHT22;49285;49.002;8.390;2023-03-21T08:49:08;13.90;99.90
1880;DHT22;49285;49.002;8.390;2023-03-21T08:51:33;13.80;99.90
1880;DHT22;49285;49.002;8.390;2023-03-21T08:54:01;13.70;99.90
1880;DHT22;49285;49.002;8.390;2023-03-21T08:56:27;13.90;99.90
1880;DHT22;49285;49.002;8.390;2023-03-21T08:58:53;14.00;99.90
1880;DHT22;49285;49.002;8.390;2023-03-21T09:01:18;14.10;99.90
1880;DHT22;49285;49.002;8.390;2023-03-21T09:03:44;14.20;99.90
1880;DHT22;49285;49.002;8.390;2023-03-21T09:06:10;14.40;99.90
1880;DHT22;49285;49.002;8.390;2023-03-21T09:08:39;14.50;99.90
1880;DHT22;49285;49.002;8.390;2023-03-21T09:11:07;14.40;99.90
1880;DHT22;49285;49.002;8.390;2023-03-21T09:13:32;14.40;99.90
1880;DHT22;49285;49.002;8.390;2023-03-21T09:15:58;14.60;99.90
1880;DHT22;49285;49.002;8.390;2023-03-21T09:18:26;14.70;99.90
1880;DHT22;49285;49.002;8.390;2023-03-21T09:21:10;14.70;99.90
1880;DHT22;49285;49.002;8.390;2023-03-21T09:23:38;14.60;99.90
1880;DHT22;49285;49.002;8.390;2023-03-21T09:26:05;14.50;99.90
1880;DHT22;49285;49.002;8.390;2023-03-21T09:28:31;14.60;99.90
1880;DHT22;49285;49.002;8.390;2023-03-21T09:30:58;14.70;99.90
1880;DHT22;49285;49.002;8.390;2023-03-21T09:33:24;14.80;99.90
1880;DHT22;49285;49.002;8.390;2023-03-21T09:35:55;15.00;99.90
1880;DHT22;49285;49.002;8.390;2023-03-21T09:38:23;15.10;99.90
1880;DHT22;49285;49.002;8.390;2023-03-21T09:41:22;14.90;99.90
1880;DHT22;49285;49.002;8.390;2023-03-21T09:46:40;14.60;99.90
1880;DHT22;49285;49.002;8.390;2023-03-21T09:49:17;14.50;99.90
1880;DHT22;49285;49.002;8.390;2023-03-21T09:51:46;14.60;99.90
1880;DHT22;49285;49.002;8.390;2023-03-21T09:54:24;14.50;99.90
1880;DHT22;49285;49.002;8.390;2023-03-21T09:56:53;14.70;99.90
1880;DHT22;49285;49.002;8.390;2023-03-21T09:59:35;14.80;99.90
1880;DHT22;49285;49.002;8.390;2023-03-21T10:02:20;14.80;99.90
1880;DHT22;49285;49.002;8.390;2023-03-21T10:04:57;14.90;99.90
1880;DHT22;49285;49.002;8.390;2023-03-21T10:07:24;14.80;99.90
1880;DHT22;49285;49.002;8.390;2023-03-21T10:09:50;14.90;99.90
1880;DHT22;49285;49.002;8.390;2023-03-21T10:12:20;15.00;99.90
1880;DHT22;49285;49.002;8.390;2023-03-21T10:14:49;15.00;99.90
1880;DHT22;49285;49.002;8.390;2023-03-21T10:17:43;15.10;99.90
1880;DHT22;49285;49.002;8.390;2023-03-21T10:20:26;15.00;99.90
1880;DHT22;49285;49.002;8.390;2023-03-21T10:22:53;15.10;99.90
1880;DHT22;49285;49.002;8.390;2023-03-21T10:25:50;15.10;99.90
1880;DHT22;49285;49.002;8.390;2023-03-21T10:28:20;15.20;99.90
1880;DHT22;49285;49.002;8.390;2023-03-21T10:31:00;15.40;99.90
1880;DHT22;49285;49.002;8.390;2023-03-21T10:33:31;15.30;99.90
1880;DHT22;49285;49.002;8.390;2023-03-21T10:36:04;15.30;99.90
1880;DHT22;49285;49.002;8.390;2023-03-21T10:38:31;15.30;99.90
1880;DHT22;49285;49.002;8.390;2023-03-21T10:40:57;15.30;99.90
1880;DHT22;49285;49.002;8.390;2023-03-21T10:45:52;15.40;99.90
1880;DHT22;49285;49.002;8.390;2023-03-21T10:48:18;15.50;99.90
1880;DHT22;49285;49.002;8.390;2023-03-21T10:50:47;15.60;99.90
1880;DHT22;49285;49.002;8.390;2023-03-21T10:53:22;15.80;99.90
1880;DHT22;49285;49.002;8.390;2023-03-21T10:55:53;16.00;99.90
1880;DHT22;49285;49.002;8.390;2023-03-21T10:58:24;16.20;99.90
1880;DHT22;49285;49.002;8.390;2023-03-21T11:01:00;16.20;99.90
1880;DHT22;49285;49.002;8.390;2023-03-21T11:03:30;16.20;99.90
1880;DHT22;49285;49.002;8.390;2023-03-21T11:08:29;16.60;99.90
1880;DHT22;49285;49.002;8.390;2023-03-21T11:11:04;16.60;99.90
1880;DHT22;49285;49.002;8.390;2023-03-21T11:13:44;16.60;99.90
1880;DHT22;49285;49.002;8.390;2023-03-21T11:16:43;16.50;99.90
1880;DHT22;49285;49.002;8.390;2023-03-21T11:19:14;16.40;99.90
1880;DHT22;49285;49.002;8.390;2023-03-21T11:21:40;16.60;99.90
1880;DHT22;49285;49.002;8.390;2023-03-21T11:24:14;16.80;99.90
1880;DHT22;49285;49.002;8.390;2023-03-21T11:26:43;17.00;99.90
1880;DHT22;49285;49.002;8.390;2023-03-21T11:29:29;17.30;99.90
1880;DHT22;49285;49.002;8.390;2023-03-21T11:32:24;17.70;99.90
1880;DHT22;49285;49.002;8.390;2023-03-21T11:34:56;17.90;99.90
1880;DHT22;49285;49.002;8.390;2023-03-21T11:37:26;18.00;99.90
1880;DHT22;49285;49.002;8.390;2023-03-21T11:40:20;18.10;99.90
1880;DHT22;49285;49.002;8.390;2023-03-21T11:42:50;17.80;99.90
1880;DHT22;49285;49.002;8.390;2023-03-21T11:45:30;17.80;99.90
1880;DHT22;49285;49.002;8.390;2023-03-21T11:47:58;17.80;99.90
1880;DHT22;49285;49.002;8.390;2023-03-21T11:50:40;17.70;99.90
1880;DHT22;49285;49.002;8.390;2023-03-21T11:53:36;17.60;99.90
1880;DHT22;49285;49.002;8.390;2023-03-21T11:56:30;17.60;99.90
1880;DHT22;49285;49.002;8.390;2023-03-21T12:04:38;18.30;99.90
1880;DHT22;49285;49.002;8.390;2023-03-21T12:07:26;18.40;99.90
1880;DHT22;49285;49.002;8.390;2023-03-21T12:15:35;19.80;97.30
1880;DHT22;49285;49.002;8.390;2023-03-21T12:20:54;19.60;94.50
1880;DHT22;49285;49.002;8.390;2023-03-21T12:26:24;21.40;93.30
1880;DHT22;49285;49.002;8.390;2023-03-21T12:29:35;21.90;91.80
1880;DHT22;49285;49.002;8.390;2023-03-21T12:40:24;21.10;89.70
1880;DHT22;49285;49.002;8.390;2023-03-21T12:43:04;21.10;89.20
1880;DHT22;49285;49.002;8.390;2023-03-21T12:45:36;21.30;88.60
1880;DHT22;49285;49.002;8.390;2023-03-21T12:48:56;21.40;87.10
1880;DHT22;49285;49.002;8.390;2023-03-21T12:51:04;21.80;87.30
1880;DHT22;49285;49.002;8.390;2023-03-21T12:56:34;23.20;83.80
1880;DHT22;49285;49.002;8.390;2023-03-21T13:01:46;23.90;77.40
1880;DHT22;49285;49.002;8.390;2023-03-21T13:04:44;24.00;76.20
1880;DHT22;49285;49.002;8.390;2023-03-21T13:07:16;23.80;74.90
1880;DHT22;49285;49.002;8.390;2023-03-21T13:09:44;22.90;75.00
1880;DHT22;49285;49.002;8.390;2023-03-21T13:12:44;22.10;76.80
1880;DHT22;49285;49.002;8.390;2023-03-21T13:15:24;22.20;76.40
1880;DHT22;49285;49.002;8.390;2023-03-21T13:20:49;21.50;77.40
1880;DHT22;49285;49.002;8.390;2023-03-21T13:23:21;21.60;77.80
1880;DHT22;49285;49.002;8.390;2023-03-21T13:25:48;21.70;78.00
1880;DHT22;49285;49.002;8.390;2023-03-21T13:28:25;21.50;77.70
1880;DHT22;49285;49.002;8.390;2023-03-21T13:30:52;21.90;78.20
1880;DHT22;49285;49.002;8.390;2023-03-21T13:33:27;22.20;73.90
1880;DHT22;49285;49.002;8.390;2023-03-21T13:36:04;22.60;72.80
1880;DHT22;49285;49.002;8.390;2023-03-21T13:38:33;22.60;72.70
1880;DHT22;49285;49.002;8.390;2023-03-21T13:41:13;22.40;70.90
1880;DHT22;49285;49.002;8.390;2023-03-21T13:51:44;21.60;72.70
1880;DHT22;49285;49.002;8.390;2023-03-21T13:56:49;21.40;73.10
1880;DHT22;49285;49.002;8.390;2023-03-21T13:59:34;21.90;73.50
1880;DHT22;49285;49.002;8.390;2023-03-21T14:02:31;22.30;74.40
1880;DHT22;49285;49.002;8.390;2023-03-21T14:05:13;22.50;70.50
1880;DHT22;49285;49.002;8.390;2023-03-21T14:07:43;22.30;70.20
1880;DHT22;49285;49.002;8.390;2023-03-21T14:10:29;22.40;70.10
1880;DHT22;49285;49.002;8.390;2023-03-21T14:12:58;22.20;69.30
1880;DHT22;49285;49.002;8.390;2023-03-21T14:15:39;22.20;70.00
1880;DHT22;49285;49.002;8.390;2023-03-21T14:18:06;22.00;70.50
1880;DHT22;49285;49.002;8.390;2023-03-21T14:20:36;21.90;70.50
1880;DHT22;49285;49.002;8.390;2023-03-21T14:23:07;21.50;71.20
1880;DHT22;49285;49.002;8.390;2023-03-21T14:25:37;21.10;72.50
1880;DHT22;49285;49.002;8.390;2023-03-21T14:28:07;20.70;73.30
1880;DHT22;49285;49.002;8.390;2023-03-21T14:30:36;20.20;73.30
1880;DHT22;49285;49.002;8.390;2023-03-21T14:33:27;19.80;74.30
1880;DHT22;49285;49.002;8.390;2023-03-21T14:36:02;19.60;74.90
1880;DHT22;49285;49.002;8.390;2023-03-21T14:38:34;19.60;75.60
1880;DHT22;49285;49.002;8.390;2023-03-21T14:41:01;19.40;75.70
1880;DHT22;49285;49.002;8.390;2023-03-21T14:43:27;19.20;73.40
1880;DHT22;49285;49.002;8.390;2023-03-21T14:45:55;19.20;73.80
1880;DHT22;49285;49.002;8.390;2023-03-21T14:48:32;19.10;73.60
1880;DHT22;49285;49.002;8.390;2023-03-21T14:51:04;18.70;74.40
1880;DHT22;49285;49.002;8.390;2023-03-21T14:53:36;18.60;73.70
1880;DHT22;49285;49.002;8.390;2023-03-21T14:58:33;18.40;72.10
1880;DHT22;49285;49.002;8.390;2023-03-21T15:01:04;18.30;69.00
1880;DHT22;49285;49.002;8.390;2023-03-21T15:03:30;18.20;68.10
1880;DHT22;49285;49.002;8.390;2023-03-21T15:05:57;18.20;68.30
1880;DHT22;49285;49.002;8.390;2023-03-21T15:08:25;18.10;68.30
1880;DHT22;49285;49.002;8.390;2023-03-21T15:11:01;18.10;69.40
1880;DHT22;49285;49.002;8.390;2023-03-21T15:13:51;18.10;70.70
1880;DHT22;49285;49.002;8.390;2023-03-21T15:16:17;18.20;71.90
1880;DHT22;49285;49.002;8.390;2023-03-21T15:18:43;18.20;73.20
1880;DHT22;49285;49.002;8.390;2023-03-21T15:21:16;18.20;74.10
1880;DHT22;49285;49.002;8.390;2023-03-21T15:23:46;18.30;74.30
1880;DHT22;49285;49.002;8.390;2023-03-21T15:26:16;18.30;74.90
1880;DHT22;49285;49.002;8.390;2023-03-21T15:28:44;18.30;75.70
1880;DHT22;49285;49.002;8.390;2023-03-21T15:31:23;18.10;76.70
1880;DHT22;49285;49.002;8.390;2023-03-21T15:33:51;17.90;77.70
1880;DHT22;49285;49.002;8.390;2023-03-21T15:36:24;17.70;78.60
1880;DHT22;49285;49.002;8.390;2023-03-21T15:38:50;17.80;78.80
1880;DHT22;49285;49.002;8.390;2023-03-21T15:41:26;17.90;79.10
1880;DHT22;49285;49.002;8.390;2023-03-21T15:51:39;17.90;79.20
1880;DHT22;49285;49.002;8.390;2023-03-21T15:54:13;17.90;79.10
1880;DHT22;49285;49.002;8.390;2023-03-21T15:56:40;17.80;79.00
1880;DHT22;49285;49.002;8.390;2023-03-21T15:59:13;17.90;78.40
1880;DHT22;49285;49.002;8.390;2023-03-21T16:01:39;17.90;79.10
1880;DHT22;49285;49.002;8.390;2023-03-21T16:04:08;17.90;79.50
1880;DHT22;49285;49.002;8.390;2023-03-21T16:06:35;17.80;80.00
1880;DHT22;49285;49.002;8.390;2023-03-21T16:09:10;17.70;80.70
1880;DHT22;49285;49.002;8.390;2023-03-21T16:11:37;17.70;80.50
1880;DHT22;49285;49.002;8.390;2023-03-21T16:14:03;17.50;80.10
1880;DHT22;49285;49.002;8.390;2023-03-21T16:16:29;17.50;81.00
1880;DHT22;49285;49.002;8.390;2023-03-21T16:18:57;17.50;80.70
1880;DHT22;49285;49.002;8.390;2023-03-21T16:21:26;17.60;80.40
1880;DHT22;49285;49.002;8.390;2023-03-21T16:23:51;17.60;80.70
1880;DHT22;49285;49.002;8.390;2023-03-21T16:26:20;17.60;80.80
1880;DHT22;49285;49.002;8.390;2023-03-21T16:28:47;17.50;81.60
1880;DHT22;49285;49.002;8.390;2023-03-21T16:31:18;17.50;82.20
1880;DHT22;49285;49.002;8.390;2023-03-21T16:33:44;17.60;82.30
1880;DHT22;49285;49.002;8.390;2023-03-21T16:36:22;17.60;82.90
1880;DHT22;49285;49.002;8.390;2023-03-21T16:38:49;17.50;83.60
1880;DHT22;49285;49.002;8.390;2023-03-21T16:41:17;17.40;85.60
1880;DHT22;49285;49.002;8.390;2023-03-21T16:43:43;17.30;86.20
1880;DHT22;49285;49.002;8.390;2023-03-21T16:46:16;17.30;86.40
1880;DHT22;49285;49.002;8.390;2023-03-21T16:48:44;17.20;86.90
1880;DHT22;49285;49.002;8.390;2023-03-21T16:51:36;17.20;87.20
1880;DHT22;49285;49.002;8.390;2023-03-21T16:54:02;17.20;88.00
1880;DHT22;49285;49.002;8.390;2023-03-21T16:56:49;17.00;88.40
1880;DHT22;49285;49.002;8.390;2023-03-21T16:59:15;17.00;89.20
1880;DHT22;49285;49.002;8.390;2023-03-21T17:01:43;16.90;89.60
1880;DHT22;49285;49.002;8.390;2023-03-21T17:04:11;16.90;90.10
1880;DHT22;49285;49.002;8.390;2023-03-21T17:06:45;16.90;90.20
1880;DHT22;49285;49.002;8.390;2023-03-21T17:09:13;16.90;90.50
1880;DHT22;49285;49.002;8.390;2023-03-21T17:11:39;16.90;90.40
1880;DHT22;49285;49.002;8.390;2023-03-21T17:14:07;16.90;90.40
1880;DHT22;49285;49.002;8.390;2023-03-21T17:16:33;17.00;90.50
1880;DHT22;49285;49.002;8.390;2023-03-21T17:18:59;16.90;90.80
1880;DHT22;49285;49.002;8.390;2023-03-21T17:21:28;16.80;90.90
1880;DHT22;49285;49.002;8.390;2023-03-21T17:23:54;16.80;91.20
1880;DHT22;49285;49.002;8.390;2023-03-21T17:26:26;16.80;91.10
1880;DHT22;49285;49.002;8.390;2023-03-21T17:28:53;16.90;90.90
1880;DHT22;49285;49.002;8.390;2023-03-21T17:31:22;16.90;90.90
1880;DHT22;49285;49.002;8.390;2023-03-21T17:33:48;17.00;90.90